sensor_id;sensor_type;location;lat;lon;timestamp;P1;durP1;ratioP1;P2;durP2;ratioP2
44732;SDS011;30460;50.836;4.390;2022-09-11T05:50:54;36.10;;;20.90;;
44732;SDS011;30460;50.836;4.390;2022-09-11T05:53:20;32.30;;;22.02;;
44732;SDS011;30460;50.836;4.390;2022-09-11T05:55:46;27.98;;;21.67;;
44732;SDS011;30460;50.836;4.390;2022-09-11T05:58:14;27.55;;;22.42;;
44732;SDS011;30460;50.836;4.390;2022-09-11T06:00:42;28.58;;;21.30;;
44732;SDS011;30460;50.836;4.390;2022-09-11T06:03:17;27.15;;;21.35;;
44732;SDS011;30460;50.836;4.390;2022-09-11T06:05:43;28.98;;;22.00;;
44732;SDS011;30460;50.836;4.390;2022-09-11T06:08:11;25.38;;;19.33;;
44732;SDS011;30460;50.836;4.390;2022-09-11T06:10:43;27.05;;;21.52;;
44732;SDS011;30460;50.836;4.390;2022-09-11T06:13:12;26.50;;;21.83;;
44732;SDS011;30460;50.836;4.390;2022-09-11T06:15:44;31.67;;;22.52;;
44732;SDS011;30460;50.836;4.390;2022-09-11T06:18:11;29.33;;;21.52;;
44732;SDS011;30460;50.836;4.390;2022-09-11T06:20:37;28.88;;;22.70;;
44732;SDS011;30460;50.836;4.390;2022-09-11T06:23:03;28.67;;;22.20;;
44732;SDS011;30460;50.836;4.390;2022-09-11T06:25:29;27.73;;;22.83;;
44732;SDS011;30460;50.836;4.390;2022-09-11T06:27:56;28.38;;;20.98;;
44732;SDS011;30460;50.836;4.390;2022-09-11T06:30:22;26.50;;;22.67;;
44732;SDS011;30460;50.836;4.390;2022-09-11T06:32:48;23.83;;;19.92;;
44732;SDS011;30460;50.836;4.390;2022-09-11T06:35:14;28.60;;;22.60;;
44732;SDS011;30460;50.836;4.390;2022-09-11T06:37:40;19.25;;;16.45;;
44732;SDS011;30460;50.836;4.390;2022-09-11T06:40:06;31.05;;;22.20;;
44732;SDS011;30460;50.836;4.390;2022-09-11T06:42:32;27.85;;;21.45;;
44732;SDS011;30460;50.836;4.390;2022-09-11T06:44:58;26.77;;;21.73;;
44732;SDS011;30460;50.836;4.390;2022-09-11T06:47:24;27.08;;;22.75;;
44732;SDS011;30460;50.836;4.390;2022-09-11T06:49:50;29.25;;;22.55;;
44732;SDS011;30460;50.836;4.390;2022-09-11T06:52:17;29.08;;;22.80;;
44732;SDS011;30460;50.836;4.390;2022-09-11T06:54:42;27.63;;;22.27;;
44732;SDS011;30460;50.836;4.390;2022-09-11T06:57:08;26.52;;;21.60;;
44732;SDS011;30460;50.836;4.390;2022-09-11T06:59:34;29.85;;;22.90;;
44732;SDS011;30460;50.836;4.390;2022-09-11T07:02:01;27.55;;;23.05;;
44732;SDS011;30460;50.836;4.390;2022-09-11T07:04:27;33.35;;;22.50;;
44732;SDS011;30460;50.836;4.390;2022-09-11T07:06:53;28.52;;;22.50;;
44732;SDS011;30460;50.836;4.390;2022-09-11T07:09:21;31.60;;;23.13;;
44732;SDS011;30460;50.836;4.390;2022-09-11T07:11:47;28.15;;;23.65;;
44732;SDS011;30460;50.836;4.390;2022-09-11T07:14:13;21.67;;;18.10;;
44732;SDS011;30460;50.836;4.390;2022-09-11T07:16:45;26.23;;;21.92;;
44732;SDS011;30460;50.836;4.390;2022-09-11T07:19:12;29.77;;;24.35;;
44732;SDS011;30460;50.836;4.390;2022-09-11T07:21:38;29.48;;;24.75;;
44732;SDS011;30460;50.836;4.390;2022-09-11T07:24:07;25.65;;;20.42;;
44732;SDS011;30460;50.836;4.390;2022-09-11T07:26:34;30.55;;;24.88;;
44732;SDS011;30460;50.836;4.390;2022-09-11T07:29:03;21.55;;;17.75;;
44732;SDS011;30460;50.836;4.390;2022-09-11T07:31:30;23.83;;;19.98;;
44732;SDS011;30460;50.836;4.390;2022-09-11T07:33:57;32.63;;;26.13;;
44732;SDS011;30460;50.836;4.390;2022-09-11T07:36:24;31.17;;;25.23;;
44732;SDS011;30460;50.836;4.390;2022-09-11T07:38:51;32.75;;;26.35;;
44732;SDS011;30460;50.836;4.390;2022-09-11T07:41:19;29.80;;;24.90;;
44732;SDS011;30460;50.836;4.390;2022-09-11T07:43:45;38.55;;;26.48;;
44732;SDS011;30460;50.836;4.390;2022-09-11T07:46:14;31.98;;;25.80;;
44732;SDS011;30460;50.836;4.390;2022-09-11T07:48:40;33.33;;;26.38;;
44732;SDS011;30460;50.836;4.390;2022-09-11T07:51:07;33.03;;;25.80;;
44732;SDS011;30460;50.836;4.390;2022-09-11T07:53:43;717.25;;;70.10;;
44732;SDS011;30460;50.836;4.390;2022-09-11T07:56:11;144.15;;;33.72;;
44732;SDS011;30460;50.836;4.390;2022-09-11T07:58:38;31.98;;;25.45;;
44732;SDS011;30460;50.836;4.390;2022-09-11T08:01:09;33.53;;;26.33;;
44732;SDS011;30460;50.836;4.390;2022-09-11T08:03:36;32.78;;;26.52;;
44732;SDS011;30460;50.836;4.390;2022-09-11T08:06:04;31.98;;;27.05;;
44732;SDS011;30460;50.836;4.390;2022-09-11T08:08:32;34.63;;;26.98;;
44732;SDS011;30460;50.836;4.390;2022-09-11T08:11:06;21.77;;;18.55;;
44732;SDS011;30460;50.836;4.390;2022-09-11T08:13:32;29.48;;;23.15;;
44732;SDS011;30460;50.836;4.390;2022-09-11T08:15:58;28.40;;;20.83;;
44732;SDS011;30460;50.836;4.390;2022-09-11T08:18:25;29.95;;;23.67;;
44732;SDS011;30460;50.836;4.390;2022-09-11T08:20:59;36.53;;;26.85;;
44732;SDS011;30460;50.836;4.390;2022-09-11T08:23:25;32.38;;;26.42;;
44732;SDS011;30460;50.836;4.390;2022-09-11T08:25:51;32.25;;;24.95;;
44732;SDS011;30460;50.836;4.390;2022-09-11T08:28:17;33.70;;;26.10;;
44732;SDS011;30460;50.836;4.390;2022-09-11T08:30:43;32.78;;;24.90;;
44732;SDS011;30460;50.836;4.390;2022-09-11T08:33:10;29.50;;;20.98;;
44732;SDS011;30460;50.836;4.390;2022-09-11T08:35:36;30.85;;;24.60;;
44732;SDS011;30460;50.836;4.390;2022-09-11T08:38:03;24.30;;;20.50;;
44732;SDS011;30460;50.836;4.390;2022-09-11T08:40:29;28.80;;;25.45;;
44732;SDS011;30460;50.836;4.390;2022-09-11T08:42:59;23.13;;;20.02;;
44732;SDS011;30460;50.836;4.390;2022-09-11T08:45:28;24.10;;;20.08;;
44732;SDS011;30460;50.836;4.390;2022-09-11T08:47:56;28.83;;;23.50;;
44732;SDS011;30460;50.836;4.390;2022-09-11T08:52:52;24.95;;;20.60;;
44732;SDS011;30460;50.836;4.390;2022-09-11T08:56:02;26.40;;;22.45;;
44732;SDS011;30460;50.836;4.390;2022-09-11T08:58:12;31.50;;;25.52;;
44732;SDS011;30460;50.836;4.390;2022-09-11T09:00:53;30.48;;;26.13;;
44732;SDS011;30460;50.836;4.390;2022-09-11T09:08:30;29.83;;;24.92;;
44732;SDS011;30460;50.836;4.390;2022-09-11T09:11:03;30.98;;;25.55;;
44732;SDS011;30460;50.836;4.390;2022-09-11T09:18:49;31.60;;;26.10;;
44732;SDS011;30460;50.836;4.390;2022-09-11T09:21:26;24.38;;;21.35;;
44732;SDS011;30460;50.836;4.390;2022-09-11T09:23:58;26.85;;;23.23;;
44732;SDS011;30460;50.836;4.390;2022-09-11T09:26:38;30.10;;;24.75;;
44732;SDS011;30460;50.836;4.390;2022-09-11T09:29:08;28.02;;;23.63;;
44732;SDS011;30460;50.836;4.390;2022-09-11T09:31:38;29.00;;;22.65;;
44732;SDS011;30460;50.836;4.390;2022-09-11T09:34:16;22.55;;;18.73;;
44732;SDS011;30460;50.836;4.390;2022-09-11T09:39:21;28.88;;;22.80;;
44732;SDS011;30460;50.836;4.390;2022-09-11T09:47:23;22.77;;;18.40;;
44732;SDS011;30460;50.836;4.390;2022-09-11T09:49:50;26.48;;;20.35;;
44732;SDS011;30460;50.836;4.390;2022-09-11T09:52:23;23.73;;;20.33;;
44732;SDS011;30460;50.836;4.390;2022-09-11T09:54:55;29.45;;;23.08;;
44732;SDS011;30460;50.836;4.390;2022-09-11T09:57:22;29.08;;;21.88;;
44732;SDS011;30460;50.836;4.390;2022-09-11T09:59:54;26.92;;;21.85;;
44732;SDS011;30460;50.836;4.390;2022-09-11T10:10:28;20.48;;;18.00;;
44732;SDS011;30460;50.836;4.390;2022-09-11T10:12:58;21.88;;;18.13;;
44732;SDS011;30460;50.836;4.390;2022-09-11T10:15:25;24.38;;;20.38;;
44732;SDS011;30460;50.836;4.390;2022-09-11T10:17:52;26.67;;;22.05;;
44732;SDS011;30460;50.836;4.390;2022-09-11T10:20:20;28.73;;;21.63;;
44732;SDS011;30460;50.836;4.390;2022-09-11T10:22:50;25.27;;;21.50;;
44732;SDS011;30460;50.836;4.390;2022-09-11T10:25:20;20.63;;;18.25;;
44732;SDS011;30460;50.836;4.390;2022-09-11T10:27:55;25.52;;;22.05;;
44732;SDS011;30460;50.836;4.390;2022-09-11T10:30:37;21.27;;;17.52;;
44732;SDS011;30460;50.836;4.390;2022-09-11T10:33:13;21.38;;;17.83;;
44732;SDS011;30460;50.836;4.390;2022-09-11T10:35:47;22.10;;;18.85;;
44732;SDS011;30460;50.836;4.390;2022-09-11T10:38:16;20.83;;;16.23;;
44732;SDS011;30460;50.836;4.390;2022-09-11T10:41:03;21.27;;;16.73;;
44732;SDS011;30460;50.836;4.390;2022-09-11T10:46:20;13.80;;;12.40;;
44732;SDS011;30460;50.836;4.390;2022-09-11T10:48:54;15.05;;;12.43;;
44732;SDS011;30460;50.836;4.390;2022-09-11T10:51:22;17.08;;;14.98;;
44732;SDS011;30460;50.836;4.390;2022-09-11T10:56:36;15.45;;;13.32;;
44732;SDS011;30460;50.836;4.390;2022-09-11T10:59:05;14.15;;;12.13;;
44732;SDS011;30460;50.836;4.390;2022-09-11T11:01:37;15.55;;;13.90;;
44732;SDS011;30460;50.836;4.390;2022-09-11T11:04:04;17.58;;;15.32;;
44732;SDS011;30460;50.836;4.390;2022-09-11T11:15:04;13.25;;;11.85;;
44732;SDS011;30460;50.836;4.390;2022-09-11T11:20:02;15.43;;;12.68;;
44732;SDS011;30460;50.836;4.390;2022-09-11T11:26:12;13.85;;;12.45;;
44732;SDS011;30460;50.836;4.390;2022-09-11T11:36:31;17.67;;;12.32;;
44732;SDS011;30460;50.836;4.390;2022-09-11T11:39:06;12.57;;;11.13;;
44732;SDS011;30460;50.836;4.390;2022-09-11T11:41:36;10.90;;;9.80;;
44732;SDS011;30460;50.836;4.390;2022-09-11T11:44:08;12.27;;;10.82;;
44732;SDS011;30460;50.836;4.390;2022-09-11T11:46:38;11.63;;;10.43;;
44732;SDS011;30460;50.836;4.390;2022-09-11T11:49:11;10.23;;;9.15;;
44732;SDS011;30460;50.836;4.390;2022-09-11T11:51:51;9.02;;;8.18;;
44732;SDS011;30460;50.836;4.390;2022-09-11T11:54:22;10.52;;;9.52;;
44732;SDS011;30460;50.836;4.390;2022-09-11T11:56:51;10.55;;;9.45;;
44732;SDS011;30460;50.836;4.390;2022-09-11T12:04:44;9.25;;;8.38;;
44732;SDS011;30460;50.836;4.390;2022-09-11T12:07:25;9.40;;;8.43;;
44732;SDS011;30460;50.836;4.390;2022-09-11T12:09:55;11.77;;;9.27;;
44732;SDS011;30460;50.836;4.390;2022-09-11T12:12:23;9.77;;;8.57;;
44732;SDS011;30460;50.836;4.390;2022-09-11T12:14:55;9.20;;;8.30;;
44732;SDS011;30460;50.836;4.390;2022-09-11T12:17:34;8.20;;;7.40;;
44732;SDS011;30460;50.836;4.390;2022-09-11T12:22:39;8.50;;;7.70;;
44732;SDS011;30460;50.836;4.390;2022-09-11T12:40:49;8.10;;;7.32;;
44732;SDS011;30460;50.836;4.390;2022-09-11T12:43:51;8.93;;;7.95;;
44732;SDS011;30460;50.836;4.390;2022-09-11T12:46:11;8.27;;;7.47;;
44732;SDS011;30460;50.836;4.390;2022-09-11T12:48:42;8.27;;;7.47;;
44732;SDS011;30460;50.836;4.390;2022-09-11T12:51:26;7.15;;;6.45;;
44732;SDS011;30460;50.836;4.390;2022-09-11T12:53:55;7.68;;;6.63;;
44732;SDS011;30460;50.836;4.390;2022-09-11T12:56:24;7.97;;;7.18;;
44732;SDS011;30460;50.836;4.390;2022-09-11T12:58:56;9.13;;;6.80;;
44732;SDS011;30460;50.836;4.390;2022-09-11T13:01:29;8.10;;;7.30;;
44732;SDS011;30460;50.836;4.390;2022-09-11T13:06:47;9.00;;;7.30;;
44732;SDS011;30460;50.836;4.390;2022-09-11T13:09:19;7.63;;;6.93;;
44732;SDS011;30460;50.836;4.390;2022-09-11T13:11:48;8.07;;;6.75;;
44732;SDS011;30460;50.836;4.390;2022-09-11T13:17:01;5.97;;;5.40;;
44732;SDS011;30460;50.836;4.390;2022-09-11T13:19:35;6.55;;;5.85;;
44732;SDS011;30460;50.836;4.390;2022-09-11T13:22:06;6.22;;;5.72;;
44732;SDS011;30460;50.836;4.390;2022-09-11T13:24:43;4.80;;;4.38;;
44732;SDS011;30460;50.836;4.390;2022-09-11T13:27:15;5.68;;;5.20;;
44732;SDS011;30460;50.836;4.390;2022-09-11T13:29:42;4.78;;;4.20;;
44732;SDS011;30460;50.836;4.390;2022-09-11T13:32:09;7.40;;;6.70;;
44732;SDS011;30460;50.836;4.390;2022-09-11T13:34:41;6.85;;;4.70;;
44732;SDS011;30460;50.836;4.390;2022-09-11T13:37:12;6.63;;;5.50;;
44732;SDS011;30460;50.836;4.390;2022-09-11T13:39:40;6.57;;;5.30;;
44732;SDS011;30460;50.836;4.390;2022-09-11T13:42:11;6.38;;;5.00;;
44732;SDS011;30460;50.836;4.390;2022-09-11T13:44:49;6.10;;;4.85;;
44732;SDS011;30460;50.836;4.390;2022-09-11T13:50:04;6.82;;;4.78;;
44732;SDS011;30460;50.836;4.390;2022-09-11T13:52:31;4.35;;;3.95;;
44732;SDS011;30460;50.836;4.390;2022-09-11T13:55:08;5.13;;;4.22;;
44732;SDS011;30460;50.836;4.390;2022-09-11T13:57:34;5.88;;;5.15;;
44732;SDS011;30460;50.836;4.390;2022-09-11T14:00:34;6.93;;;6.32;;
44732;SDS011;30460;50.836;4.390;2022-09-11T14:03:03;4.57;;;4.22;;
44732;SDS011;30460;50.836;4.390;2022-09-11T14:05:31;5.45;;;4.13;;
44732;SDS011;30460;50.836;4.390;2022-09-11T14:08:17;4.45;;;4.00;;
44732;SDS011;30460;50.836;4.390;2022-09-11T14:10:48;4.30;;;4.00;;
44732;SDS011;30460;50.836;4.390;2022-09-11T14:13:17;6.82;;;3.95;;
44732;SDS011;30460;50.836;4.390;2022-09-11T14:18:27;4.53;;;3.85;;
44732;SDS011;30460;50.836;4.390;2022-09-11T14:20:55;4.03;;;3.63;;
44732;SDS011;30460;50.836;4.390;2022-09-11T14:23:22;4.10;;;3.20;;
44732;SDS011;30460;50.836;4.390;2022-09-11T14:26:05;5.18;;;4.70;;
44732;SDS011;30460;50.836;4.390;2022-09-11T14:31:09;4.43;;;4.13;;
44732;SDS011;30460;50.836;4.390;2022-09-11T14:33:37;4.68;;;3.03;;
44732;SDS011;30460;50.836;4.390;2022-09-11T14:36:07;3.30;;;3.00;;
44732;SDS011;30460;50.836;4.390;2022-09-11T14:38:37;3.92;;;3.63;;
44732;SDS011;30460;50.836;4.390;2022-09-11T14:41:09;4.90;;;4.07;;
44732;SDS011;30460;50.836;4.390;2022-09-11T14:43:40;4.50;;;4.10;;
44732;SDS011;30460;50.836;4.390;2022-09-11T14:46:06;3.78;;;2.92;;
44732;SDS011;30460;50.836;4.390;2022-09-11T14:48:33;4.22;;;3.40;;
44732;SDS011;30460;50.836;4.390;2022-09-11T14:51:00;5.82;;;3.30;;
44732;SDS011;30460;50.836;4.390;2022-09-11T14:53:32;4.07;;;3.67;;
44732;SDS011;30460;50.836;4.390;2022-09-11T14:56:00;3.00;;;2.80;;
44732;SDS011;30460;50.836;4.390;2022-09-11T14:58:27;3.13;;;2.80;;
44732;SDS011;30460;50.836;4.390;2022-09-11T15:00:53;4.53;;;3.08;;
44732;SDS011;30460;50.836;4.390;2022-09-11T15:03:22;4.45;;;3.25;;
44732;SDS011;30460;50.836;4.390;2022-09-11T15:05:55;3.47;;;3.17;;
44732;SDS011;30460;50.836;4.390;2022-09-11T15:08:22;3.53;;;3.22;;
44732;SDS011;30460;50.836;4.390;2022-09-11T15:10:49;3.22;;;2.95;;
44732;SDS011;30460;50.836;4.390;2022-09-11T15:13:17;3.63;;;2.80;;
44732;SDS011;30460;50.836;4.390;2022-09-11T15:15:44;2.60;;;2.40;;
44732;SDS011;30460;50.836;4.390;2022-09-11T15:18:10;3.38;;;2.70;;
44732;SDS011;30460;50.836;4.390;2022-09-11T15:20:37;2.65;;;2.45;;
44732;SDS011;30460;50.836;4.390;2022-09-11T15:23:03;4.93;;;2.78;;
44732;SDS011;30460;50.836;4.390;2022-09-11T15:25:30;2.60;;;2.40;;
44732;SDS011;30460;50.836;4.390;2022-09-11T15:27:57;5.07;;;3.80;;
44732;SDS011;30460;50.836;4.390;2022-09-11T15:30:23;3.78;;;2.40;;
44732;SDS011;30460;50.836;4.390;2022-09-11T15:32:49;2.75;;;2.40;;
44732;SDS011;30460;50.836;4.390;2022-09-11T15:35:15;2.53;;;2.10;;
44732;SDS011;30460;50.836;4.390;2022-09-11T15:37:42;2.50;;;2.30;;
44732;SDS011;30460;50.836;4.390;2022-09-11T15:40:10;3.03;;;2.20;;
44732;SDS011;30460;50.836;4.390;2022-09-11T15:42:37;5.32;;;2.50;;
44732;SDS011;30460;50.836;4.390;2022-09-11T15:45:03;3.20;;;2.90;;
44732;SDS011;30460;50.836;4.390;2022-09-11T15:47:29;3.95;;;3.53;;
44732;SDS011;30460;50.836;4.390;2022-09-11T15:49:56;4.63;;;3.22;;
44732;SDS011;30460;50.836;4.390;2022-09-11T15:52:23;2.53;;;2.20;;
44732;SDS011;30460;50.836;4.390;2022-09-11T15:54:51;3.90;;;2.40;;
44732;SDS011;30460;50.836;4.390;2022-09-11T15:57:17;2.47;;;2.28;;
44732;SDS011;30460;50.836;4.390;2022-09-11T15:59:43;3.40;;;3.10;;
44732;SDS011;30460;50.836;4.390;2022-09-11T16:02:10;3.72;;;3.40;;
44732;SDS011;30460;50.836;4.390;2022-09-11T16:04:36;2.85;;;2.65;;
44732;SDS011;30460;50.836;4.390;2022-09-11T16:07:03;4.20;;;2.53;;
44732;SDS011;30460;50.836;4.390;2022-09-11T16:09:30;3.25;;;2.95;;
44732;SDS011;30460;50.836;4.390;2022-09-11T16:11:56;3.80;;;3.13;;
44732;SDS011;30460;50.836;4.390;2022-09-11T16:14:27;3.70;;;3.40;;
44732;SDS011;30460;50.836;4.390;2022-09-11T16:16:53;4.20;;;3.80;;
44732;SDS011;30460;50.836;4.390;2022-09-11T16:19:21;2.97;;;2.72;;
44732;SDS011;30460;50.836;4.390;2022-09-11T16:21:51;3.83;;;3.53;;
44732;SDS011;30460;50.836;4.390;2022-09-11T16:24:20;4.75;;;3.45;;
44732;SDS011;30460;50.836;4.390;2022-09-11T16:26:46;3.63;;;3.33;;
44732;SDS011;30460;50.836;4.390;2022-09-11T16:29:13;3.50;;;3.17;;
44732;SDS011;30460;50.836;4.390;2022-09-11T16:31:39;4.18;;;3.88;;
44732;SDS011;30460;50.836;4.390;2022-09-11T16:34:06;4.45;;;4.03;;
44732;SDS011;30460;50.836;4.390;2022-09-11T16:36:33;3.78;;;2.67;;
44732;SDS011;30460;50.836;4.390;2022-09-11T16:39:06;3.33;;;2.25;;
44732;SDS011;30460;50.836;4.390;2022-09-11T16:41:41;2.80;;;2.60;;
44732;SDS011;30460;50.836;4.390;2022-09-11T16:44:08;3.63;;;3.33;;
44732;SDS011;30460;50.836;4.390;2022-09-11T16:46:35;3.60;;;3.30;;
44732;SDS011;30460;50.836;4.390;2022-09-11T16:49:01;3.90;;;3.50;;
44732;SDS011;30460;50.836;4.390;2022-09-11T16:51:28;3.90;;;3.60;;
44732;SDS011;30460;50.836;4.390;2022-09-11T16:53:55;4.28;;;3.97;;
44732;SDS011;30460;50.836;4.390;2022-09-11T16:56:22;2.78;;;2.55;;
44732;SDS011;30460;50.836;4.390;2022-09-11T16:58:48;4.20;;;3.80;;
44732;SDS011;30460;50.836;4.390;2022-09-11T17:01:16;4.70;;;4.18;;
44732;SDS011;30460;50.836;4.390;2022-09-11T17:03:43;3.45;;;3.25;;
44732;SDS011;30460;50.836;4.390;2022-09-11T17:06:09;3.80;;;3.50;;
44732;SDS011;30460;50.836;4.390;2022-09-11T17:08:37;4.00;;;3.42;;
44732;SDS011;30460;50.836;4.390;2022-09-11T17:11:05;4.00;;;3.60;;
44732;SDS011;30460;50.836;4.390;2022-09-11T17:13:33;3.15;;;2.95;;
44732;SDS011;30460;50.836;4.390;2022-09-11T17:16:01;3.00;;;2.50;;
44732;SDS011;30460;50.836;4.390;2022-09-11T17:18:28;3.22;;;2.92;;
44732;SDS011;30460;50.836;4.390;2022-09-11T17:20:54;3.55;;;3.13;;
44732;SDS011;30460;50.836;4.390;2022-09-11T17:23:21;3.15;;;2.80;;
44732;SDS011;30460;50.836;4.390;2022-09-11T17:25:49;3.50;;;3.28;;
44732;SDS011;30460;50.836;4.390;2022-09-11T17:28:16;4.63;;;3.63;;
44732;SDS011;30460;50.836;4.390;2022-09-11T17:30:45;3.40;;;3.10;;
44732;SDS011;30460;50.836;4.390;2022-09-11T17:33:12;3.75;;;3.30;;
44732;SDS011;30460;50.836;4.390;2022-09-11T17:35:38;3.13;;;2.83;;
44732;SDS011;30460;50.836;4.390;2022-09-11T17:38:06;4.88;;;3.47;;
44732;SDS011;30460;50.836;4.390;2022-09-11T17:40:32;3.50;;;3.20;;
44732;SDS011;30460;50.836;4.390;2022-09-11T17:42:58;3.40;;;3.20;;
44732;SDS011;30460;50.836;4.390;2022-09-11T17:45:25;3.78;;;3.30;;
44732;SDS011;30460;50.836;4.390;2022-09-11T17:47:53;3.78;;;3.47;;
44732;SDS011;30460;50.836;4.390;2022-09-11T17:50:21;3.80;;;3.50;;
44732;SDS011;30460;50.836;4.390;2022-09-11T17:52:48;3.60;;;3.30;;
44732;SDS011;30460;50.836;4.390;2022-09-11T17:55:14;4.18;;;3.88;;
44732;SDS011;30460;50.836;4.390;2022-09-11T17:57:40;4.13;;;3.72;;
44732;SDS011;30460;50.836;4.390;2022-09-11T18:00:09;3.67;;;3.30;;
44732;SDS011;30460;50.836;4.390;2022-09-11T18:02:36;5.13;;;4.30;;
44732;SDS011;30460;50.836;4.390;2022-09-11T18:05:02;4.13;;;3.72;;
44732;SDS011;30460;50.836;4.390;2022-09-11T18:07:28;4.22;;;3.83;;
44732;SDS011;30460;50.836;4.390;2022-09-11T18:09:54;8.45;;;3.92;;
44732;SDS011;30460;50.836;4.390;2022-09-11T18:12:20;4.70;;;3.88;;
44732;SDS011;30460;50.836;4.390;2022-09-11T18:14:46;3.85;;;3.55;;
44732;SDS011;30460;50.836;4.390;2022-09-11T18:17:12;4.35;;;3.95;;
44732;SDS011;30460;50.836;4.390;2022-09-11T18:19:38;4.50;;;4.10;;
44732;SDS011;30460;50.836;4.390;2022-09-11T18:22:05;3.78;;;3.47;;
44732;SDS011;30460;50.836;4.390;2022-09-11T18:24:31;5.85;;;4.53;;
44732;SDS011;30460;50.836;4.390;2022-09-11T18:26:57;5.50;;;3.97;;
44732;SDS011;30460;50.836;4.390;2022-09-11T18:29:24;3.35;;;3.15;;
44732;SDS011;30460;50.836;4.390;2022-09-11T18:31:51;4.25;;;3.85;;
44732;SDS011;30460;50.836;4.390;2022-09-11T18:34:19;5.80;;;4.97;;
44732;SDS011;30460;50.836;4.390;2022-09-11T18:36:46;3.42;;;3.20;;
44732;SDS011;30460;50.836;4.390;2022-09-11T18:39:12;5.88;;;4.88;;
44732;SDS011;30460;50.836;4.390;2022-09-11T18:41:39;4.60;;;3.60;;
44732;SDS011;30460;50.836;4.390;2022-09-11T18:44:06;3.58;;;3.28;;
44732;SDS011;30460;50.836;4.390;2022-09-11T18:46:32;5.32;;;4.35;;
44732;SDS011;30460;50.836;4.390;2022-09-11T18:49:01;4.88;;;4.38;;
44732;SDS011;30460;50.836;4.390;2022-09-11T18:51:28;3.58;;;3.28;;
44732;SDS011;30460;50.836;4.390;2022-09-11T18:53:54;9.60;;;7.43;;
44732;SDS011;30460;50.836;4.390;2022-09-11T18:56:21;4.97;;;4.25;;
44732;SDS011;30460;50.836;4.390;2022-09-11T18:58:49;4.30;;;3.90;;
44732;SDS011;30460;50.836;4.390;2022-09-11T19:01:17;4.38;;;4.03;;
44732;SDS011;30460;50.836;4.390;2022-09-11T19:03:43;4.60;;;4.20;;
44732;SDS011;30460;50.836;4.390;2022-09-11T19:06:12;4.25;;;3.85;;
44732;SDS011;30460;50.836;4.390;2022-09-11T19:08:39;4.13;;;3.83;;
44732;SDS011;30460;50.836;4.390;2022-09-11T19:11:25;4.25;;;3.88;;
44732;SDS011;30460;50.836;4.390;2022-09-11T19:13:51;5.13;;;3.72;;
44732;SDS011;30460;50.836;4.390;2022-09-11T19:16:19;4.32;;;3.92;;
44732;SDS011;30460;50.836;4.390;2022-09-11T19:18:45;4.18;;;3.78;;
44732;SDS011;30460;50.836;4.390;2022-09-11T19:21:13;4.35;;;3.90;;
44732;SDS011;30460;50.836;4.390;2022-09-11T19:23:41;4.95;;;4.55;;
44732;SDS011;30460;50.836;4.390;2022-09-11T19:26:12;4.30;;;4.00;;
44732;SDS011;30460;50.836;4.390;2022-09-11T19:28:39;4.20;;;3.80;;
44732;SDS011;30460;50.836;4.390;2022-09-11T19:31:06;4.55;;;4.15;;
44732;SDS011;30460;50.836;4.390;2022-09-11T19:33:34;4.68;;;4.22;;
44732;SDS011;30460;50.836;4.390;2022-09-11T19:36:03;4.10;;;3.80;;
44732;SDS011;30460;50.836;4.390;2022-09-11T19:38:30;5.10;;;4.70;;
44732;SDS011;30460;50.836;4.390;2022-09-11T19:41:03;4.47;;;4.07;;
44732;SDS011;30460;50.836;4.390;2022-09-11T19:43:30;4.90;;;4.45;;
44732;SDS011;30460;50.836;4.390;2022-09-11T19:46:02;5.65;;;4.38;;
44732;SDS011;30460;50.836;4.390;2022-09-11T19:48:31;3.88;;;3.58;;
44732;SDS011;30460;50.836;4.390;2022-09-11T19:50:57;4.35;;;3.60;;
44732;SDS011;30460;50.836;4.390;2022-09-11T19:53:26;4.22;;;3.83;;
44732;SDS011;30460;50.836;4.390;2022-09-11T19:55:54;4.75;;;4.35;;
44732;SDS011;30460;50.836;4.390;2022-09-11T19:58:20;5.85;;;4.57;;
44732;SDS011;30460;50.836;4.390;2022-09-11T20:00:47;4.68;;;3.95;;
44732;SDS011;30460;50.836;4.390;2022-09-11T20:03:14;5.28;;;4.75;;
44732;SDS011;30460;50.836;4.390;2022-09-11T20:05:41;4.40;;;4.00;;
44732;SDS011;30460;50.836;4.390;2022-09-11T20:08:07;4.82;;;4.22;;
44732;SDS011;30460;50.836;4.390;2022-09-11T20:10:34;5.20;;;4.50;;
44732;SDS011;30460;50.836;4.390;2022-09-11T20:13:00;4.85;;;4.38;;
44732;SDS011;30460;50.836;4.390;2022-09-11T20:15:26;4.90;;;4.40;;
44732;SDS011;30460;50.836;4.390;2022-09-11T20:17:52;5.20;;;4.70;;
44732;SDS011;30460;50.836;4.390;2022-09-11T20:20:18;5.00;;;4.50;;
44732;SDS011;30460;50.836;4.390;2022-09-11T20:22:45;4.50;;;4.10;;
44732;SDS011;30460;50.836;4.390;2022-09-11T20:25:11;4.88;;;4.47;;
44732;SDS011;30460;50.836;4.390;2022-09-11T20:27:37;5.72;;;4.82;;
44732;SDS011;30460;50.836;4.390;2022-09-11T20:30:03;5.65;;;5.00;;
44732;SDS011;30460;50.836;4.390;2022-09-11T20:32:29;5.60;;;5.10;;
44732;SDS011;30460;50.836;4.390;2022-09-11T20:34:55;5.38;;;4.88;;
